createdAt,value
2022-09-22T00:01:39.134Z,99907.22
2022-09-22T00:04:08.699Z,99908.25
2022-09-22T00:06:40.158Z,99902.31
2022-09-22T00:09:10.846Z,99896.47
2022-09-22T00:11:40.525Z,99895.56
2022-09-22T00:14:10.216Z,99898.25
2022-09-22T00:16:42.834Z,99895.69
2022-09-22T00:19:13.714Z,99892.31
2022-09-22T00:21:40.723Z,99899.47
2022-09-22T00:24:08.168Z,99895.22
2022-09-22T00:26:36.078Z,99889.97
2022-09-22T00:29:02.865Z,99898.81
2022-09-22T00:31:30.233Z,99892.72
2022-09-22T00:33:57.317Z,99895.41
2022-09-22T00:36:26.237Z,99893.78
2022-09-22T00:38:55.589Z,99888.75
2022-09-22T00:41:27.881Z,99896.81
2022-09-22T00:44:15.922Z,99888.19
2022-09-22T00:46:45.922Z,99888.31
2022-09-22T00:49:14.463Z,99888.47
2022-09-22T00:51:44.821Z,99883.34
2022-09-22T00:54:16.238Z,99881.69
2022-09-22T00:56:53.480Z,99886.88
2022-09-22T00:59:24.025Z,99883.50
2022-09-22T01:01:50.942Z,99887.88
2022-09-22T01:04:18.348Z,99878.25
2022-09-22T01:06:46.130Z,99883.50
2022-09-22T01:09:13.798Z,99878.38
2022-09-22T01:11:41.571Z,99876.88
2022-09-22T01:14:30.258Z,99883.25
2022-09-22T01:17:18.219Z,99875.72
2022-09-22T01:20:15.543Z,99881.94
2022-09-22T01:23:03.838Z,99874.22
2022-09-22T01:25:48.793Z,99869.94
2022-09-22T01:28:45.125Z,99869.19
2022-09-22T01:31:22.871Z,99870.22
2022-09-22T01:34:14.447Z,99865.97
2022-09-22T01:36:49.846Z,99871.34
2022-09-22T01:39:22.818Z,99869.63
2022-09-22T01:42:02.176Z,99870.56
2022-09-22T01:44:35.506Z,99878.56
2022-09-22T01:47:09.107Z,99868.22
2022-09-22T01:49:40.214Z,99866.34
2022-09-22T01:52:13.150Z,99863.88
2022-09-22T01:54:47.321Z,99865.75
2022-09-22T01:57:23.565Z,99858.81
2022-09-22T01:59:58.620Z,99860.66
2022-09-22T02:02:33.961Z,99859.81
2022-09-22T02:05:06.128Z,99859.00
2022-09-22T02:07:40.687Z,99863.47
2022-09-22T02:10:13.168Z,99862.81
2022-09-22T02:12:39.967Z,99855.09
2022-09-22T02:15:30.290Z,99858.69
2022-09-22T02:18:01.882Z,99858.84
2022-09-22T02:20:29.068Z,99852.09
2022-09-22T02:22:55.710Z,99856.38
2022-09-22T02:25:24.978Z,99849.31
2022-09-22T02:27:55.192Z,99847.66
2022-09-22T02:30:23.043Z,99848.59
2022-09-22T02:32:52.859Z,99841.72
2022-09-22T02:35:21.050Z,99842.69
2022-09-22T02:38:17.195Z,99844.53
2022-09-22T02:41:11.093Z,99851.66
2022-09-22T02:43:43.770Z,99849.94
2022-09-22T02:46:34.790Z,99843.78
2022-09-22T02:49:09.638Z,99840.19
2022-09-22T02:51:36.584Z,99839.34
2022-09-22T02:54:03.551Z,99840.31
2022-09-22T02:56:30.364Z,99845.66
2022-09-22T02:58:58.556Z,99836.00
2022-09-22T03:01:25.599Z,99842.09
2022-09-22T03:03:52.620Z,99843.09
2022-09-22T03:06:19.458Z,99847.47
2022-09-22T03:08:45.986Z,99843.19
2022-09-22T03:11:12.572Z,99834.41
2022-09-22T03:13:39.190Z,99836.28
2022-09-22T03:16:06.507Z,99840.53
2022-09-22T03:18:33.194Z,99836.28
2022-09-22T03:20:59.811Z,99833.66
2022-09-22T03:23:26.659Z,99824.06
2022-09-22T03:25:53.217Z,99825.78
2022-09-22T03:28:20.405Z,99829.19
2022-09-22T03:30:47.412Z,99824.84
2022-09-22T03:33:14.054Z,99832.66
2022-09-22T03:35:41.354Z,99836.13
2022-09-22T03:38:07.912Z,99830.03
2022-09-22T03:40:34.791Z,99831.75
2022-09-22T03:43:01.691Z,99831.69
2022-09-22T03:45:28.309Z,99823.81
2022-09-22T03:47:54.856Z,99831.69
2022-09-22T03:50:21.885Z,99830.63
2022-09-22T03:52:48.479Z,99837.53
2022-09-22T03:55:15.132Z,99834.75
2022-09-22T03:57:43.443Z,99832.06
2022-09-22T04:00:10.692Z,99826.78
2022-09-22T04:02:37.370Z,99821.53
2022-09-22T04:05:04.108Z,99819.66
2022-09-22T04:07:30.734Z,99820.41
2022-09-22T04:09:57.671Z,99814.25
2022-09-22T04:12:24.353Z,99816.78
2022-09-22T04:14:50.947Z,99813.38
2022-09-22T04:17:20.466Z,99816.06
2022-09-22T04:19:47.396Z,99815.88
2022-09-22T04:22:14.514Z,99815.09
2022-09-22T04:24:41.451Z,99808.00
2022-09-22T04:27:19.484Z,99809.59
2022-09-22T04:29:47.420Z,99810.56
2022-09-22T04:32:14.682Z,99812.25
2022-09-22T04:34:41.816Z,99807.72
2022-09-22T04:37:08.812Z,99808.63
2022-09-22T04:39:36.289Z,99811.13
2022-09-22T04:42:03.524Z,99809.31
2022-09-22T04:44:34.593Z,99808.25
2022-09-22T04:47:01.643Z,99809.03
2022-09-22T04:49:28.347Z,99807.28
2022-09-22T04:51:54.983Z,99804.44
2022-09-22T04:54:21.533Z,99810.38
2022-09-22T04:56:48.087Z,99807.84
2022-09-22T04:59:14.684Z,99811.28
2022-09-22T05:01:41.718Z,99810.31
2022-09-22T05:04:09.037Z,99813.59
2022-09-22T05:06:36.436Z,99803.94
2022-09-22T05:09:04.120Z,99813.38
2022-09-22T05:11:31.367Z,99812.41
2022-09-22T05:13:58.671Z,99808.84
2022-09-22T06:26:28.311Z,99841.63
2022-09-22T06:34:46.072Z,99837.69
2022-09-22T06:37:12.750Z,99842.66
2022-09-22T06:39:39.384Z,99837.31
2022-09-22T06:48:15.684Z,99831.38
2022-09-22T06:50:48.843Z,99833.78
2022-09-22T06:53:15.493Z,99837.69
2022-09-22T06:55:43.224Z,99827.66
2022-09-22T06:58:10.616Z,99829.22
2022-09-22T07:00:37.331Z,99827.91
2022-09-22T07:03:13.360Z,99825.84
2022-09-22T07:05:39.933Z,99829.75
2022-09-22T07:08:07.087Z,99827.31
2022-09-22T07:10:38.170Z,99828.41
2022-09-22T07:13:10.753Z,99827.25
2022-09-22T07:15:37.461Z,99828.38
2022-09-22T07:18:04.640Z,99831.41
2022-09-22T07:20:32.463Z,99831.66
2022-09-22T07:23:00.812Z,99829.00
2022-09-22T07:25:28.761Z,99828.72
2022-09-22T07:28:05.054Z,99824.66
2022-09-22T07:30:32.450Z,99831.84
2022-09-22T07:33:01.283Z,99835.50
2022-09-22T07:35:28.771Z,99833.88
2022-09-22T07:37:57.058Z,99833.47
2022-09-22T07:40:23.827Z,99838.53
2022-09-22T07:42:50.830Z,99835.19
2022-09-22T07:45:17.472Z,99832.44
2022-09-22T07:48:03.760Z,99834.22
2022-09-22T07:50:30.600Z,99835.88
2022-09-22T07:52:57.309Z,99837.84
2022-09-22T07:55:25.244Z,99830.47
2022-09-22T07:57:59.839Z,99836.56
2022-09-22T08:00:33.059Z,99827.50
2022-09-22T08:03:01.291Z,99833.38
2022-09-22T08:05:28.959Z,99831.31
2022-09-22T08:07:58.334Z,99826.94
2022-09-22T08:10:26.183Z,99826.34
2022-09-22T08:12:58.170Z,99824.47
2022-09-22T08:15:27.412Z,99824.09
2022-09-22T08:18:02.333Z,99821.13
2022-09-22T08:20:30.149Z,99813.81
2022-09-22T08:23:03.108Z,99814.00
2022-09-22T08:25:30.541Z,99805.81
2022-09-22T08:27:57.396Z,99808.00
2022-09-22T08:30:24.028Z,99807.50
2022-09-22T08:32:50.766Z,99801.75
2022-09-22T08:35:17.524Z,99802.94
2022-09-22T08:37:44.527Z,99805.28
2022-09-22T08:40:23.691Z,99800.56
2022-09-22T08:42:54.104Z,99798.34
2022-09-22T08:45:30.854Z,99797.81
2022-09-22T08:48:41.602Z,99791.09
2022-09-22T08:51:33.759Z,99794.78
2022-09-22T08:54:03.525Z,99795.28
2022-09-22T08:56:44.940Z,99792.38
2022-09-22T08:59:23.535Z,99785.56
2022-09-22T09:02:25.810Z,99783.94
2022-09-22T09:07:26.366Z,99776.22
2022-09-22T09:10:06.956Z,99773.09
2022-09-22T09:12:57.898Z,99775.59
2022-09-22T09:15:38.225Z,99767.72
2022-09-22T09:18:15.730Z,99769.47
2022-09-22T09:20:46.248Z,99772.06
2022-09-22T09:23:19.358Z,99777.16
2022-09-22T09:25:52.377Z,99774.63
2022-09-22T09:28:25.355Z,99768.53
2022-09-22T09:31:04.716Z,99766.63
2022-09-22T09:33:43.826Z,99762.81
2022-09-22T09:36:17.701Z,99768.13
2022-09-22T09:38:57.212Z,99760.91
2022-09-22T09:41:28.251Z,99768.25
2022-09-22T09:43:56.252Z,99764.28
2022-09-22T09:46:46.262Z,99755.66
2022-09-22T09:49:31.550Z,99756.72
2022-09-22T09:52:01.256Z,99755.19
2022-09-22T09:54:28.600Z,99748.03
2022-09-22T09:57:01.139Z,99753.91
2022-09-22T09:59:47.039Z,99749.50
2022-09-22T10:02:21.313Z,99746.31
2022-09-22T10:05:19.693Z,99749.38
2022-09-22T10:07:48.734Z,99738.56
2022-09-22T10:10:35.513Z,99740.13
2022-09-22T10:13:04.898Z,99739.09
2022-09-22T10:15:37.050Z,99732.13
2022-09-22T10:18:24.234Z,99730.41
2022-09-22T10:21:15.792Z,99728.16
2022-09-22T10:23:44.874Z,99723.53
2022-09-22T10:26:32.265Z,99719.78
2022-09-22T10:29:18.517Z,99712.34
2022-09-22T10:32:03.000Z,99713.53
2022-09-22T10:34:37.090Z,99709.56
2022-09-22T10:37:10.763Z,99708.16
2022-09-22T10:39:43.272Z,99710.00
2022-09-22T10:42:38.362Z,99708.13
2022-09-22T10:45:15.430Z,99705.25
2022-09-22T10:47:58.225Z,99703.88
2022-09-22T10:50:31.431Z,99710.38
2022-09-22T10:53:25.644Z,99705.13
2022-09-22T10:56:09.448Z,99698.50
2022-09-22T10:58:45.009Z,99699.38
2022-09-22T11:01:46.775Z,99700.25
2022-09-22T11:04:25.681Z,99685.75
2022-09-22T11:07:35.631Z,99687.75
2022-09-22T11:10:38.493Z,99682.69
2022-09-22T11:13:35.261Z,99680.16
2022-09-22T11:16:29.926Z,99670.88
2022-09-22T11:19:11.202Z,99667.50
2022-09-22T11:21:40.623Z,99662.13
2022-09-22T11:24:07.196Z,99665.78
2022-09-22T11:26:53.557Z,99666.09
2022-09-22T11:29:57.504Z,99662.28
2022-09-22T11:33:03.209Z,99656.75
2022-09-22T11:36:06.660Z,99659.25
2022-09-22T11:38:35.910Z,99649.81
2022-09-22T11:41:16.262Z,99639.25
2022-09-22T11:44:05.915Z,99644.84
2022-09-22T11:46:49.091Z,99643.41
2022-09-22T11:49:34.758Z,99635.81
2022-09-22T11:52:21.075Z,99622.72
2022-09-22T11:55:12.331Z,99620.88
2022-09-22T11:57:42.888Z,99624.50
2022-09-22T12:00:19.021Z,99623.09
2022-09-22T12:03:02.338Z,99622.41
2022-09-22T12:05:42.138Z,99621.38
2022-09-22T12:08:13.979Z,99616.56
2022-09-22T12:10:47.186Z,99613.44
2022-09-22T12:13:24.361Z,99607.19
2022-09-22T12:16:12.667Z,99603.84
2022-09-22T12:19:04.914Z,99599.53
2022-09-22T12:22:05.827Z,99593.53
2022-09-22T12:24:33.316Z,99597.91
2022-09-22T12:27:11.132Z,99601.06
2022-09-22T12:29:39.016Z,99595.25
2022-09-22T12:32:06.031Z,99591.03
2022-09-22T12:34:39.241Z,99588.84
2022-09-22T12:37:19.287Z,99589.06
2022-09-22T12:39:49.808Z,99578.38
2022-09-22T12:42:33.065Z,99574.91
2022-09-22T12:45:08.340Z,99575.72
2022-09-22T12:47:41.289Z,99570.41
2022-09-22T12:50:34.223Z,99566.47
2022-09-22T12:53:12.267Z,99566.41
2022-09-22T12:55:39.201Z,99567.81
2022-09-22T12:58:21.200Z,99557.25
2022-09-22T13:01:27.305Z,99554.06
2022-09-22T13:04:17.232Z,99548.06
2022-09-22T13:06:43.711Z,99544.91
2022-09-22T13:09:20.286Z,99545.31
2022-09-22T13:12:15.102Z,99546.50
2022-09-22T13:14:53.982Z,99552.38
2022-09-22T13:17:50.367Z,99548.47
2022-09-22T13:20:24.374Z,99541.34
2022-09-22T13:22:52.138Z,99536.94
2022-09-22T13:25:24.345Z,99541.00
2022-09-22T13:28:12.842Z,99534.59
2022-09-22T13:30:41.450Z,99537.69
2022-09-22T13:33:26.028Z,99534.00
2022-09-22T13:35:59.871Z,99528.69
2022-09-22T13:38:27.648Z,99532.47
2022-09-22T13:40:54.774Z,99544.94
2022-09-22T13:43:30.906Z,99530.53
2022-09-22T13:45:59.862Z,99532.78
2022-09-22T13:48:32.787Z,99525.56
2022-09-22T13:51:04.455Z,99520.72
2022-09-22T13:53:32.015Z,99508.06
2022-09-22T13:55:59.647Z,99518.31
2022-09-22T13:58:46.402Z,99509.94
2022-09-22T14:01:16.014Z,99511.63
2022-09-22T14:03:43.323Z,99509.91
2022-09-22T14:06:30.507Z,99507.16
2022-09-22T14:08:57.905Z,99506.09
2022-09-22T14:11:28.687Z,99502.19
2022-09-22T14:13:55.376Z,99499.81
2022-09-22T14:16:50.090Z,99504.09
2022-09-22T14:19:24.342Z,99507.53
2022-09-22T14:22:03.128Z,99500.47
2022-09-22T14:24:32.351Z,99488.94
2022-09-22T14:27:04.031Z,99503.44
2022-09-22T14:29:40.969Z,99491.28
2022-09-22T14:32:33.004Z,99493.06
2022-09-22T14:35:02.802Z,99491.69
2022-09-22T14:37:36.551Z,99493.94
2022-09-22T14:40:07.374Z,99493.13
2022-09-22T14:42:34.658Z,99488.75
2022-09-22T14:45:10.210Z,99484.19
2022-09-22T14:47:41.483Z,99481.03
2022-09-22T14:50:08.701Z,99484.03
2022-09-22T14:52:39.753Z,99480.13
2022-09-22T14:55:30.645Z,99477.25
2022-09-22T14:58:01.122Z,99472.06
2022-09-22T15:00:46.509Z,99480.31
2022-09-22T15:03:22.155Z,99469.34
2022-09-22T15:05:50.354Z,99477.53
2022-09-22T15:08:22.009Z,99472.31
2022-09-22T15:10:54.129Z,99476.50
2022-09-22T15:13:41.633Z,99469.06
2022-09-22T15:16:39.276Z,99463.31
2022-09-22T15:19:11.008Z,99459.50
2022-09-22T15:21:41.275Z,99459.44
2022-09-22T15:24:10.953Z,99456.97
2022-09-22T15:26:38.647Z,99459.09
2022-09-22T15:29:05.361Z,99460.59
2022-09-22T15:31:32.820Z,99457.88
2022-09-22T15:34:02.831Z,99453.63
2022-09-22T15:36:34.188Z,99454.06
2022-09-22T15:39:08.075Z,99459.38
2022-09-22T15:41:34.988Z,99458.38
2022-09-22T15:44:02.843Z,99464.16
2022-09-22T15:46:34.289Z,99461.28
2022-09-22T15:49:04.463Z,99463.59
2022-09-22T15:51:32.941Z,99459.94
2022-09-22T15:53:59.674Z,99461.53
2022-09-22T15:56:29.694Z,99461.16
2022-09-22T15:59:00.923Z,99454.72
2022-09-22T16:01:29.467Z,99463.53
2022-09-22T16:04:00.198Z,99457.34
2022-09-22T16:06:27.770Z,99460.13
2022-09-22T16:08:55.408Z,99456.09
2022-09-22T16:11:29.470Z,99459.53
2022-09-22T16:13:58.190Z,99460.16
2022-09-22T16:16:27.339Z,99455.41
2022-09-22T16:18:54.715Z,99458.69
2022-09-22T16:21:27.031Z,99456.22
2022-09-22T16:24:00.527Z,99447.69
2022-09-22T16:26:31.496Z,99458.47
2022-09-22T16:28:59.285Z,99450.47
2022-09-22T16:31:27.201Z,99449.78
2022-09-22T16:33:55.205Z,99461.09
2022-09-22T16:36:23.030Z,99456.50
2022-09-22T16:38:49.620Z,99456.66
2022-09-22T16:41:30.182Z,99452.75
2022-09-22T16:43:58.001Z,99456.59
2022-09-22T16:46:29.830Z,99455.50
2022-09-22T16:49:04.096Z,99448.34
2022-09-22T16:51:36.463Z,99460.78
2022-09-22T16:54:05.583Z,99446.19
2022-09-22T16:56:35.663Z,99459.41
2022-09-22T16:59:03.168Z,99449.59
2022-09-22T17:01:31.671Z,99454.13
2022-09-22T17:03:59.280Z,99448.28
2022-09-22T17:06:26.501Z,99454.63
2022-09-22T17:08:57.175Z,99446.63
2022-09-22T17:11:31.064Z,99449.41
2022-09-22T17:14:00.889Z,99447.31
2022-09-22T17:16:31.512Z,99438.50
2022-09-22T17:19:00.568Z,99439.06
2022-09-22T17:21:30.194Z,99431.75
2022-09-22T17:24:02.222Z,99434.13
2022-09-22T17:26:47.373Z,99433.44
2022-09-22T17:29:16.284Z,99432.56
2022-09-22T17:31:44.164Z,99444.34
2022-09-22T17:34:12.844Z,99438.97
2022-09-22T17:36:40.092Z,99436.00
2022-09-22T17:39:07.648Z,99438.09
2022-09-22T17:41:34.437Z,99439.47
2022-09-22T17:44:03.169Z,99434.09
2022-09-22T17:46:32.801Z,99439.38
2022-09-22T17:49:18.326Z,99444.66
2022-09-22T17:52:08.972Z,99444.88
2022-09-22T17:54:56.175Z,99451.00
2022-09-22T17:57:31.881Z,99452.03
2022-09-22T17:59:59.389Z,99453.66
2022-09-22T18:02:37.102Z,99457.81
2022-09-22T18:05:05.585Z,99453.53
2022-09-22T18:07:35.034Z,99458.78
2022-09-22T18:10:02.078Z,99463.81
2022-09-22T18:12:29.109Z,99463.00
2022-09-22T18:14:56.103Z,99465.09
2022-09-22T18:17:26.348Z,99467.28
2022-09-22T18:19:57.741Z,99465.94
2022-09-22T18:22:26.772Z,99475.50
2022-09-22T18:24:55.642Z,99470.94
2022-09-22T18:27:25.202Z,99475.19
2022-09-22T18:29:53.536Z,99467.09
2022-09-22T18:32:20.759Z,99464.09
2022-09-22T18:34:48.122Z,99465.44
2022-09-22T18:37:15.758Z,99467.63
2022-09-22T18:39:44.798Z,99470.88
2022-09-22T18:42:12.611Z,99480.91
2022-09-22T18:44:40.030Z,99474.38
2022-09-22T18:47:08.602Z,99483.66
2022-09-22T18:49:40.169Z,99484.25
2022-09-22T18:52:08.068Z,99483.03
2022-09-22T18:54:35.384Z,99482.19
2022-09-22T18:57:03.503Z,99479.91
2022-09-22T18:59:30.231Z,99477.72
2022-09-22T19:01:56.929Z,99483.50
2022-09-22T19:04:24.953Z,99482.28
2022-09-22T19:07:14.543Z,99484.44
2022-09-22T19:09:42.053Z,99485.38
2022-09-22T19:12:10.021Z,99489.19
2022-09-22T19:14:41.777Z,99486.06
2022-09-22T19:17:10.671Z,99491.78
2022-09-22T19:19:38.474Z,99496.69
2022-09-22T19:22:09.969Z,99489.69
2022-09-22T19:24:38.368Z,99488.25
2022-09-22T19:27:07.462Z,99485.81
2022-09-22T19:29:34.407Z,99481.31
2022-09-22T19:32:01.469Z,99491.16
2022-09-22T19:34:28.812Z,99486.72
2022-09-22T19:36:56.519Z,99483.97
2022-09-22T19:39:23.508Z,99483.22
2022-09-22T19:41:52.470Z,99479.34
2022-09-22T19:44:21.494Z,99482.13
2022-09-22T19:46:49.117Z,99481.38
2022-09-22T19:49:16.668Z,99483.28
2022-09-22T19:51:43.290Z,99484.38
2022-09-22T19:54:10.007Z,99488.19
2022-09-22T19:56:37.222Z,99484.81
2022-09-22T19:59:07.276Z,99480.69
2022-09-22T20:01:40.319Z,99482.72
2022-09-22T20:04:16.330Z,99477.13
2022-09-22T20:06:42.919Z,99482.00
2022-09-22T20:09:09.680Z,99480.66
2022-09-22T20:11:39.459Z,99483.41
2022-09-22T20:14:22.956Z,99481.94
2022-09-22T20:16:59.800Z,99478.03
2022-09-22T20:19:27.882Z,99482.81
2022-09-22T20:22:25.321Z,99477.97
2022-09-22T20:25:01.508Z,99487.09
2022-09-22T20:27:33.627Z,99481.38
2022-09-22T20:30:00.865Z,99484.34
2022-09-22T20:32:34.596Z,99474.19
2022-09-22T20:35:01.770Z,99481.81
2022-09-22T20:37:28.459Z,99490.06
2022-09-22T20:39:56.463Z,99481.72
2022-09-22T20:42:24.124Z,99483.81
2022-09-22T20:44:51.129Z,99479.81
2022-09-22T20:47:19.249Z,99482.78
2022-09-22T20:49:50.799Z,99476.88
2022-09-22T20:52:20.183Z,99477.91
2022-09-22T20:54:47.342Z,99478.34
2022-09-22T20:57:14.301Z,99471.56
2022-09-22T20:59:43.977Z,99472.72
2022-09-22T21:02:12.665Z,99472.94
2022-09-22T21:04:39.403Z,99482.94
2022-09-22T21:07:06.138Z,99482.50
2022-09-22T21:09:51.646Z,99482.78
2022-09-22T21:12:18.343Z,99485.00
2022-09-22T21:14:46.002Z,99484.38
2022-09-22T21:17:13.817Z,99485.72
2022-09-22T21:19:40.905Z,99477.25
2022-09-22T21:22:07.865Z,99481.88
2022-09-22T21:24:34.564Z,99485.78
2022-09-22T21:27:01.189Z,99479.09
2022-09-22T21:29:29.546Z,99475.94
2022-09-22T21:31:57.903Z,99482.47
2022-09-22T21:34:24.979Z,99483.63
2022-09-22T21:36:51.883Z,99482.09
2022-09-22T21:39:18.756Z,99484.00
2022-09-22T21:41:45.589Z,99478.16
2022-09-22T21:44:12.247Z,99471.41
2022-09-22T21:46:41.901Z,99480.25
2022-09-22T21:49:10.027Z,99474.34
2022-09-22T21:51:47.289Z,99471.97
2022-09-22T21:54:16.585Z,99472.19
2022-09-22T21:56:43.855Z,99474.06
2022-09-22T21:59:12.232Z,99467.28
2022-09-22T22:01:41.982Z,99466.84
2022-09-22T22:04:10.277Z,99463.56
2022-09-22T22:06:40.902Z,99465.34
2022-09-22T22:09:17.837Z,99464.88
2022-09-22T22:11:49.680Z,99470.56
2022-09-22T22:14:20.461Z,99468.19
2022-09-22T22:16:52.300Z,99465.66
2022-09-22T22:19:21.173Z,99460.56
2022-09-22T22:21:50.903Z,99460.84
2022-09-22T22:24:36.642Z,99463.97
2022-09-22T22:27:06.621Z,99465.13
2022-09-22T22:29:38.578Z,99463.41
2022-09-22T22:32:07.247Z,99462.94
2022-09-22T22:34:34.427Z,99460.59
2022-09-22T22:37:01.191Z,99454.72
2022-09-22T22:39:27.934Z,99464.53
2022-09-22T22:41:57.619Z,99456.06
2022-09-22T22:44:24.242Z,99455.31
2022-09-22T22:46:51.101Z,99456.44
2022-09-22T22:49:17.908Z,99454.34
2022-09-22T22:51:44.528Z,99456.34
2022-09-22T22:54:12.272Z,99455.50
2022-09-22T22:56:42.020Z,99453.88
2022-09-22T22:59:09.734Z,99455.66
2022-09-22T23:01:36.587Z,99450.75
2022-09-22T23:04:06.208Z,99449.06
2022-09-22T23:06:35.822Z,99450.56
2022-09-22T23:09:03.430Z,99441.53
2022-09-22T23:11:32.337Z,99439.06
2022-09-22T23:14:03.865Z,99447.97
2022-09-22T23:16:33.154Z,99441.03
2022-09-22T23:19:02.213Z,99435.78
2022-09-22T23:21:30.396Z,99439.41
2022-09-22T23:23:57.369Z,99439.69
2022-09-22T23:26:24.303Z,99441.56
2022-09-22T23:28:51.541Z,99439.00
2022-09-22T23:31:21.506Z,99445.13
2022-09-22T23:33:52.181Z,99442.78
2022-09-22T23:36:21.435Z,99445.56
2022-09-22T23:38:48.147Z,99442.78
2022-09-22T23:41:15.365Z,99435.03
2022-09-22T23:43:41.983Z,99433.50
2022-09-22T23:46:08.734Z,99438.00
2022-09-22T23:48:36.147Z,99441.75
2022-09-22T23:51:03.730Z,99441.09
2022-09-22T23:53:33.458Z,99436.84
2022-09-22T23:56:00.247Z,99437.34
2022-09-22T23:58:27.092Z,99432.22
